Time;durP1;ratioP1;P1;durP2;ratioP2;P2;SDS_P1;SDS_P2;PMS_P1;PMS_P2;Temp;Humidity;BMP_temperature;BMP_pressure;BME280_temperature;BME280_humidity;BME280_pressure;Samples;Min_cycle;Max_cycle;Signal;HPM_P1;HPM_P2
2022/10/09 00:00:27;;;;;;;9.50;4.58;;;;;;;11.25;100.00;101017.62;2828467;81;21776;-95
2022/10/09 00:04:30;;;;;;;6.62;4.37;;;;;;;11.20;100.00;101017.11;2759562;82;21070;-93
2022/10/09 00:08:32;;;;;;;5.12;3.35;;;;;;;11.20;100.00;101025.09;2828023;82;21068;-94
2022/10/09 00:12:33;;;;;;;4.20;3.80;;;;;;;11.15;100.00;101015.24;2828064;81;21540;-96
2022/10/09 00:16:34;;;;;;;8.13;2.90;;;;;;;11.13;100.00;101019.36;2827775;81;21114;-95
2022/10/09 00:20:43;;;;;;;4.55;3.15;;;;;;;11.09;100.00;101023.19;2793118;82;21044;-95
2022/10/09 00:24:44;;;;;;;5.35;3.37;;;;;;;11.02;100.00;101022.44;2833455;82;21059;-96
2022/10/09 00:28:46;;;;;;;6.42;2.85;;;;;;;10.99;100.00;101028.33;2824839;81;21056;-95
2022/10/09 00:32:47;;;;;;;6.95;3.85;;;;;;;10.94;100.00;101034.47;2839393;81;21017;-96
2022/10/09 00:36:48;;;;;;;5.50;4.03;;;;;;;10.90;100.00;101027.67;2827924;82;21086;-96
2022/10/09 00:40:49;;;;;;;3.92;2.95;;;;;;;10.87;100.00;101034.55;2828472;82;21116;-96
2022/10/09 00:44:58;;;;;;;5.28;3.67;;;;;;;10.80;100.00;101027.48;2834796;82;21028;-96
2022/10/09 00:49:09;;;;;;;3.12;2.72;;;;;;;10.73;100.00;101043.52;2829515;81;21532;-96
2022/10/09 00:53:15;;;;;;;6.03;3.17;;;;;;;10.50;100.00;101047.78;2835879;81;21504;-94
2022/10/09 00:57:16;;;;;;;7.40;2.98;;;;;;;10.38;100.00;101052.95;2829518;82;21053;-96
2022/10/09 01:01:17;;;;;;;4.67;3.10;;;;;;;10.38;100.00;101059.59;2795294;82;21046;-95
2022/10/09 01:05:22;;;;;;;7.30;2.90;;;;;;;10.41;100.00;101058.08;2827064;82;21013;-94
2022/10/09 01:09:28;;;;;;;5.80;2.52;;;;;;;10.35;100.00;101060.30;2826265;82;21363;-96
2022/10/09 01:13:47;;;;;;;4.45;2.85;;;;;;;10.38;100.00;101061.42;2820425;82;21045;-95
2022/10/09 01:18:00;;;;;;;2.98;2.30;;;;;;;10.38;100.00;101056.94;2835516;82;21092;-96
2022/10/09 01:22:27;;;;;;;9.15;2.77;;;;;;;10.36;100.00;101061.52;2817045;82;21041;-95
2022/10/09 01:27:03;;;;;;;6.05;3.58;;;;;;;10.32;100.00;101064.02;2836916;82;21155;-96
2022/10/09 01:31:06;;;;;;;3.95;2.90;;;;;;;10.28;100.00;101062.53;2838847;82;21037;-95
2022/10/09 01:35:10;;;;;;;5.37;2.90;;;;;;;10.26;100.00;101061.78;2828227;82;21092;-94
2022/10/09 01:39:17;;;;;;;6.33;3.00;;;;;;;10.25;100.00;101068.89;2799919;81;21045;-96
2022/10/09 01:43:19;;;;;;;3.62;3.30;;;;;;;10.21;100.00;101070.53;2835021;82;21075;-96
2022/10/09 01:47:21;;;;;;;9.35;2.70;;;;;;;10.17;100.00;101077.02;2849417;81;21036;-95
2022/10/09 01:51:26;;;;;;;5.05;2.67;;;;;;;10.17;100.00;101083.66;2837989;81;21115;-95
2022/10/09 01:56:08;;;;;;;5.40;3.13;;;;;;;10.12;100.00;101091.48;2813329;81;21045;-96
2022/10/09 02:00:11;;;;;;;10.55;3.20;;;;;;;10.09;100.00;101086.83;2821527;80;21067;-96
2022/10/09 02:04:15;;;;;;;6.03;3.98;;;;;;;9.97;100.00;101092.50;2814156;82;21096;-94
2022/10/09 02:08:19;;;;;;;5.92;3.45;;;;;;;9.91;100.00;101095.57;2833453;82;21009;-96
2022/10/09 02:12:26;;;;;;;5.22;2.90;;;;;;;9.84;100.00;101101.77;2845343;81;21051;-96
2022/10/09 02:16:43;;;;;;;11.53;3.25;;;;;;;9.78;100.00;101097.70;2770611;84;21621;-95
2022/10/09 02:20:49;;;;;;;6.10;3.83;;;;;;;9.76;100.00;101102.27;2828721;82;21036;-95
2022/10/09 02:24:51;;;;;;;5.72;2.92;;;;;;;9.75;100.00;101104.55;2836417;82;21056;-96
2022/10/09 02:28:53;;;;;;;4.00;2.33;;;;;;;9.68;100.00;101107.23;2831514;82;21794;-96
2022/10/09 02:32:54;;;;;;;4.12;2.37;;;;;;;9.64;100.00;101112.38;2793467;82;21081;-92
2022/10/09 02:36:56;;;;;;;6.37;2.75;;;;;;;9.58;100.00;101110.47;2840138;82;21068;-95
2022/10/09 02:40:59;;;;;;;5.95;3.02;;;;;;;9.55;100.00;101118.64;2838091;82;21037;-92
2022/10/09 02:45:01;;;;;;;7.50;2.67;;;;;;;9.60;100.00;101121.47;2834323;82;21040;-96
2022/10/09 02:49:02;;;;;;;7.03;3.12;;;;;;;9.65;100.00;101118.07;2838585;82;20974;-96
2022/10/09 02:53:03;;;;;;;4.25;1.77;;;;;;;9.68;100.00;101131.15;2808067;82;21045;-96
2022/10/09 02:57:04;;;;;;;5.95;2.70;;;;;;;9.69;100.00;101133.69;2819509;82;21041;-96
2022/10/09 03:01:06;;;;;;;8.90;2.90;;;;;;;9.72;100.00;101129.98;2832255;82;21005;-95
2022/10/09 03:05:08;;;;;;;3.58;1.70;;;;;;;9.77;100.00;101140.33;2804560;82;21570;-96
2022/10/09 03:09:09;;;;;;;4.28;2.27;;;;;;;9.79;100.00;101141.08;2835185;81;21108;-96
2022/10/09 03:13:10;;;;;;;6.80;3.47;;;;;;;9.85;100.00;101148.64;2840254;82;21049;-96
2022/10/09 03:17:11;;;;;;;4.25;2.55;;;;;;;9.88;100.00;101154.24;2829844;82;21091;-93
2022/10/09 03:21:19;;;;;;;8.48;1.90;;;;;;;9.89;100.00;101157.27;2830501;81;21049;-96
2022/10/09 03:25:20;;;;;;;7.03;2.33;;;;;;;9.91;99.96;101166.00;2805256;81;21131;-96
2022/10/09 03:29:21;;;;;;;4.92;2.12;;;;;;;9.90;99.15;101161.64;2830923;82;21056;-96
2022/10/09 03:33:22;;;;;;;5.10;2.98;;;;;;;9.91;98.65;101160.69;2789738;81;21025;-96
2022/10/09 03:37:24;;;;;;;5.30;3.22;;;;;;;9.84;97.55;101166.41;2833697;82;21039;-94
2022/10/09 03:41:25;;;;;;;9.38;3.22;;;;;;;9.78;97.35;101169.44;2799005;82;21061;-95
2022/10/09 03:45:26;;;;;;;6.05;3.00;;;;;;;9.71;97.88;101177.44;2827319;81;21083;-96
2022/10/09 03:49:27;;;;;;;5.47;2.33;;;;;;;9.70;98.08;101185.03;2726774;83;21912;-95
2022/10/09 03:53:29;;;;;;;4.08;2.58;;;;;;;9.71;98.06;101196.88;2789888;82;21068;-94
2022/10/09 03:57:30;;;;;;;4.75;2.52;;;;;;;9.70;97.79;101195.66;2829175;82;21021;-96
2022/10/09 04:01:31;;;;;;;10.60;4.00;;;;;;;9.57;97.10;101196.42;2838445;81;21017;-91
2022/10/09 04:05:33;;;;;;;7.10;3.35;;;;;;;9.48;97.80;101201.47;2815675;82;21033;-94
2022/10/09 04:09:34;;;;;;;4.12;2.02;;;;;;;9.36;97.79;101207.07;2838229;82;21025;-96
2022/10/09 04:13:35;;;;;;;3.85;3.37;;;;;;;9.19;98.29;101213.43;2755583;84;21113;-95
2022/10/09 04:17:36;;;;;;;6.28;2.02;;;;;;;8.90;100.00;101215.58;2777301;83;21172;-96
2022/10/09 04:21:38;;;;;;;13.72;3.25;;;;;;;8.62;100.00;101215.88;2832186;82;21130;-96
2022/10/09 04:25:39;;;;;;;4.00;2.52;;;;;;;8.40;100.00;101219.75;2826930;82;21060;-95
2022/10/09 04:29:40;;;;;;;5.17;2.42;;;;;;;8.19;100.00;101218.33;2837773;81;21042;-91
2022/10/09 04:33:41;;;;;;;10.10;2.60;;;;;;;8.23;100.00;101222.51;2823081;81;21041;-93
2022/10/09 04:37:42;;;;;;;4.33;2.72;;;;;;;8.12;100.00;101219.15;2812575;82;21036;-94
2022/10/09 04:41:43;;;;;;;3.92;2.55;;;;;;;8.04;100.00;101227.52;2797611;82;21160;-94
2022/10/09 04:45:44;;;;;;;6.37;2.20;;;;;;;7.99;100.00;101226.94;2797697;81;21012;-92
2022/10/09 04:49:46;;;;;;;10.60;3.22;;;;;;;7.99;100.00;101233.56;2790295;82;21056;-95
2022/10/09 04:53:47;;;;;;;9.90;2.40;;;;;;;8.06;100.00;101232.30;2798748;82;21003;-93
2022/10/09 04:57:48;;;;;;;4.05;3.25;;;;;;;8.15;100.00;101225.59;2815277;82;21072;-93
2022/10/09 05:01:49;;;;;;;4.37;2.62;;;;;;;8.22;100.00;101231.41;2823718;82;21002;-93
2022/10/09 05:05:50;;;;;;;2.90;2.62;;;;;;;8.20;100.00;101235.94;2832970;81;21541;-94
2022/10/09 05:09:51;;;;;;;3.08;2.65;;;;;;;8.12;100.00;101239.02;2797282;82;21594;-92
2022/10/09 05:13:55;;;;;;;3.67;2.77;;;;;;;7.99;100.00;101240.19;2807221;83;21049;-91
2022/10/09 05:17:56;;;;;;;4.90;3.40;;;;;;;7.98;100.00;101242.00;2829061;81;21095;-92
2022/10/09 05:21:59;;;;;;;7.33;3.37;;;;;;;7.93;100.00;101248.48;2840147;81;21048;-92
2022/10/09 05:26:09;;;;;;;5.22;3.30;;;;;;;7.91;100.00;101255.67;2815174;82;21068;-92
2022/10/09 05:30:10;;;;;;;4.40;3.22;;;;;;;7.97;100.00;101255.31;2799555;82;21060;-92
2022/10/09 05:34:12;;;;;;;4.37;3.87;;;;;;;7.96;100.00;101254.94;2776667;84;21143;-93
2022/10/09 05:38:13;;;;;;;3.40;2.62;;;;;;;7.96;100.00;101260.23;2722949;85;21090;-92
2022/10/09 05:42:14;;;;;;;5.87;2.47;;;;;;;8.07;100.00;101264.94;2836188;82;21080;-92
2022/10/09 05:46:26;;;;;;;5.40;3.35;;;;;;;8.26;100.00;101264.29;2836305;82;21544;-92
2022/10/09 05:50:24;;;;;;;5.60;3.70;;;;;;;8.51;100.00;101278.82;2830821;82;21587;-92
2022/10/09 05:54:26;;;;;;;9.50;2.67;;;;;;;8.78;100.00;101279.97;2838193;82;21043;-91
2022/10/09 05:58:27;;;;;;;9.43;3.77;;;;;;;8.88;100.00;101279.83;2834204;82;21046;-91
2022/10/09 06:02:28;;;;;;;6.17;2.75;;;;;;;8.99;100.00;101285.83;2773346;81;20986;-92
2022/10/09 06:06:32;;;;;;;5.17;2.33;;;;;;;9.17;100.00;101288.33;2825020;82;21027;-91
2022/10/09 06:10:33;;;;;;;6.00;3.42;;;;;;;9.26;100.00;101299.70;2814357;82;21033;-91
2022/10/09 06:14:35;;;;;;;6.97;3.27;;;;;;;9.32;100.00;101296.67;2837563;82;21037;-92
2022/10/09 06:18:37;;;;;;;4.45;2.45;;;;;;;9.44;100.00;101296.43;2778631;82;21058;-91
2022/10/09 06:22:38;;;;;;;4.95;3.10;;;;;;;9.55;100.00;101301.92;2834821;81;21040;-91
2022/10/09 06:26:39;;;;;;;5.92;2.83;;;;;;;9.70;100.00;101311.23;2834271;82;21048;-91
2022/10/09 06:30:40;;;;;;;5.70;3.15;;;;;;;9.93;100.00;101311.13;2821386;82;21111;-92
2022/10/09 06:34:41;;;;;;;3.33;2.77;;;;;;;10.31;100.00;101310.96;2840492;82;21103;-92
2022/10/09 06:38:42;;;;;;;3.80;3.30;;;;;;;10.49;100.00;101317.41;2818397;81;21084;-91
2022/10/09 06:42:43;;;;;;;7.00;4.30;;;;;;;10.66;100.00;101318.95;2819612;82;21043;-91
2022/10/09 06:46:48;;;;;;;8.25;3.87;;;;;;;10.83;100.00;101320.02;2839835;81;21039;-91
2022/10/09 06:50:49;;;;;;;8.60;2.62;;;;;;;11.09;100.00;101331.22;2798570;82;21124;-91
2022/10/09 06:54:50;;;;;;;8.68;4.00;;;;;;;11.13;100.00;101332.70;2831695;82;21056;-91
2022/10/09 06:58:51;;;;;;;4.33;2.65;;;;;;;11.34;100.00;101338.86;2842922;82;21056;-92
2022/10/09 07:02:53;;;;;;;6.55;3.20;;;;;;;11.45;100.00;101344.31;2803290;82;21132;-92
2022/10/09 07:06:54;;;;;;;5.45;3.70;;;;;;;11.60;100.00;101354.39;2834368;81;21134;-92
2022/10/09 07:10:55;;;;;;;8.45;4.75;;;;;;;11.73;99.90;101351.72;2838981;82;21053;-91
2022/10/09 07:14:56;;;;;;;7.30;3.75;;;;;;;11.82;98.70;101361.75;2834978;81;21048;-91
2022/10/09 07:19:00;;;;;;;10.88;5.25;;;;;;;11.96;98.48;101359.91;2828998;81;21108;-91
2022/10/09 07:23:01;;;;;;;9.70;3.67;;;;;;;12.04;96.67;101366.94;2832332;81;21046;-89
2022/10/09 07:27:02;;;;;;;8.08;3.37;;;;;;;12.22;97.72;101365.25;2772310;83;21673;-88
2022/10/09 07:31:04;;;;;;;6.78;3.87;;;;;;;12.30;96.75;101365.54;2754790;84;21078;-89
2022/10/09 07:35:06;;;;;;;5.25;2.95;;;;;;;12.54;97.72;101376.72;2748403;82;21066;-89
2022/10/09 07:39:08;;;;;;;7.20;2.58;;;;;;;12.74;96.72;101375.74;2846835;81;21024;-89
2022/10/09 07:43:09;;;;;;;6.40;3.22;;;;;;;12.96;93.84;101379.85;2820080;82;21104;-88
2022/10/09 07:47:10;;;;;;;4.87;3.05;;;;;;;13.03;92.37;101380.75;2835632;81;21924;-87
2022/10/09 07:51:19;;;;;;;8.30;3.52;;;;;;;13.12;93.53;101388.06;2825268;81;21135;-89
2022/10/09 07:55:20;;;;;;;4.25;3.37;;;;;;;13.21;93.01;101387.84;2825419;81;21112;-89
2022/10/09 07:59:21;;;;;;;12.68;3.60;;;;;;;13.15;93.39;101382.48;2843901;81;21563;-88
2022/10/09 08:03:22;;;;;;;10.72;2.30;;;;;;;13.17;93.71;101379.23;2828166;81;21022;-89
2022/10/09 08:07:24;;;;;;;5.08;3.02;;;;;;;13.32;92.93;101386.56;2821314;81;21031;-89
2022/10/09 08:11:27;;;;;;;5.70;1.95;;;;;;;13.42;91.26;101382.20;2832486;81;21048;-88
2022/10/09 08:15:28;;;;;;;4.50;2.37;;;;;;;13.38;90.72;101389.27;2819371;81;21041;-88
2022/10/09 08:19:30;;;;;;;6.67;2.90;;;;;;;13.32;91.39;101385.70;2837119;82;21083;-89
2022/10/09 08:23:31;;;;;;;4.95;2.65;;;;;;;13.27;93.67;101401.60;2750153;84;21646;-88
2022/10/09 08:27:32;;;;;;;7.10;2.52;;;;;;;13.33;90.74;101396.28;2750856;84;21107;-88
2022/10/09 08:31:33;;;;;;;4.80;2.02;;;;;;;13.50;90.94;101397.69;2753551;84;21062;-88
2022/10/09 08:35:35;;;;;;;2.72;2.20;;;;;;;13.63;91.25;101398.09;2791371;82;21041;-88
2022/10/09 08:39:36;;;;;;;10.78;3.27;;;;;;;13.56;88.07;101401.25;2825670;82;21087;-89
2022/10/09 08:43:42;;;;;;;6.33;2.47;;;;;;;13.73;88.71;101404.41;2830513;81;21079;-89
2022/10/09 08:47:58;;;;;;;6.42;2.65;;;;;;;13.84;90.07;101405.78;2839911;81;21573;-89
2022/10/09 08:52:04;;;;;;;11.28;4.10;;;;;;;13.94;87.83;101398.36;2827388;82;21056;-89
2022/10/09 08:56:13;;;;;;;4.35;2.05;;;;;;;14.08;87.15;101398.12;2817714;82;21080;-89
2022/10/09 09:00:25;;;;;;;7.87;2.47;;;;;;;14.30;89.42;101396.41;2828201;82;21072;-88
2022/10/09 09:04:48;;;;;;;8.58;2.80;;;;;;;14.29;88.64;101400.06;2832049;82;21618;-89
2022/10/09 09:08:55;;;;;;;7.12;3.65;;;;;;;14.41;86.19;101395.08;2817755;81;21158;-89
2022/10/09 09:13:23;;;;;;;7.92;1.75;;;;;;;14.43;85.30;101393.12;2790427;82;21067;-90
2022/10/09 09:17:47;;;;;;;7.78;1.90;;;;;;;14.63;85.86;101395.14;2677287;87;21145;-91
2022/10/09 09:21:52;;;;;;;8.03;3.15;;;;;;;14.87;86.50;101392.31;2688118;87;21035;-90
2022/10/09 09:25:55;;;;;;;5.58;2.35;;;;;;;15.12;85.28;101395.62;2672655;87;21101;-91
2022/10/09 09:30:15;;;;;;;6.17;3.02;;;;;;;15.32;83.86;101397.11;2684274;87;21094;-90
2022/10/09 09:34:27;;;;;;;8.25;2.22;;;;;;;15.35;82.26;101388.83;2611576;89;21199;-90
2022/10/09 09:38:29;;;;;;;6.58;2.70;;;;;;;15.41;80.03;101399.86;2619088;89;21119;-91
2022/10/09 09:42:30;;;;;;;13.75;3.37;;;;;;;15.56;83.32;101396.38;2665611;87;21043;-90
2022/10/09 09:46:31;;;;;;;8.98;3.42;;;;;;;15.64;80.80;101400.23;2698792;87;21055;-90
2022/10/09 09:50:38;;;;;;;4.47;1.67;;;;;;;15.58;79.46;101396.74;2632775;88;21061;-91
2022/10/09 09:54:40;;;;;;;6.05;1.50;;;;;;;15.47;80.59;101392.30;2749872;84;21576;-90
2022/10/09 09:58:48;;;;;;;5.25;2.77;;;;;;;15.37;79.33;101389.55;2752443;84;21559;-90
2022/10/09 10:02:53;;;;;;;7.83;2.80;;;;;;;15.17;79.89;101389.41;2753788;84;21142;-91
2022/10/09 10:06:55;;;;;;;4.65;2.45;;;;;;;15.05;81.50;101383.73;2810404;82;21037;-90
2022/10/09 10:11:00;;;;;;;7.33;2.62;;;;;;;15.18;80.76;101383.54;2842116;81;21083;-90
2022/10/09 10:15:01;;;;;;;6.87;2.13;;;;;;;15.17;79.12;101381.37;2820492;81;21014;-90
2022/10/09 10:19:03;;;;;;;5.25;1.72;;;;;;;15.26;78.32;101384.59;2839461;82;21798;-91
2022/10/09 10:23:04;;;;;;;5.08;2.17;;;;;;;15.48;78.09;101387.30;2839632;82;21112;-90
2022/10/09 10:27:19;;;;;;;10.35;1.60;;;;;;;15.62;76.55;101379.40;2694355;85;21211;-91
2022/10/09 10:31:55;;;;;;;5.12;1.47;;;;;;;15.75;73.28;101380.52;2707227;85;21669;-92
2022/10/09 10:35:58;;;;;;;8.47;1.53;;;;;;;15.89;75.62;101373.98;2733819;85;21041;-90
2022/10/09 10:40:13;;;;;;;7.70;1.27;;;;;;;16.07;77.67;101376.91;2733343;85;21660;-91
2022/10/09 10:44:55;;;;;;;9.47;1.67;;;;;;;16.07;69.90;101372.37;2846461;82;21021;-91
2022/10/09 10:48:59;;;;;;;7.70;2.47;;;;;;;16.19;74.07;101371.77;2789915;83;21617;-91
2022/10/09 10:53:27;;;;;;;3.37;1.47;;;;;;;16.25;71.02;101368.56;2828323;81;21042;-91
2022/10/09 10:57:46;;;;;;;3.72;0.72;;;;;;;16.31;70.37;101368.52;2835044;83;21646;-91
2022/10/09 11:02:04;;;;;;;2.35;0.78;;;;;;;16.37;66.68;101372.46;2814938;82;21210;-91
2022/10/09 11:06:17;;;;;;;2.45;1.35;;;;;;;16.54;68.02;101370.97;2818104;82;21133;-90
2022/10/09 11:10:30;;;;;;;4.65;0.80;;;;;;;16.57;66.57;101362.63;2740892;85;21099;-90
2022/10/09 11:14:58;;;;;;;2.45;1.32;;;;;;;16.70;67.23;101359.19;2688367;86;21103;-88
2022/10/09 11:19:26;;;;;;;4.28;1.30;;;;;;;16.77;65.54;101354.08;2707058;85;21041;-91
2022/10/09 11:23:50;;;;;;;4.42;1.40;;;;;;;16.79;66.49;101348.58;2818643;82;21056;-90
2022/10/09 11:28:12;;;;;;;5.75;1.72;;;;;;;16.88;66.66;101354.44;2831926;82;21038;-91
2022/10/09 11:32:27;;;;;;;2.42;0.90;;;;;;;16.92;65.14;101349.64;2837956;82;21049;-90
2022/10/09 11:36:42;;;;;;;1.93;1.23;;;;;;;17.03;65.22;101345.98;2830800;82;21021;-91
2022/10/09 11:40:44;;;;;;;2.58;0.80;;;;;;;17.03;67.48;101344.64;2829932;81;21053;-90
2022/10/09 11:45:08;;;;;;;4.33;0.80;;;;;;;17.03;64.48;101345.50;2837153;82;21013;-91
2022/10/09 11:49:46;;;;;;;3.75;1.52;;;;;;;17.03;64.76;101332.55;2828349;82;21061;-90
2022/10/09 11:53:49;;;;;;;4.60;1.07;;;;;;;17.13;64.68;101329.37;2832429;81;21587;-91
2022/10/09 11:57:51;;;;;;;5.17;1.32;;;;;;;17.27;65.52;101322.17;2824856;82;21053;-90
2022/10/09 12:01:52;;;;;;;2.37;1.65;;;;;;;17.46;65.42;101325.81;2832337;82;21104;-90
2022/10/09 12:06:14;;;;;;;5.92;1.42;;;;;;;17.50;63.57;101322.34;2836445;81;21112;-91
2022/10/09 12:10:33;;;;;;;4.37;1.45;;;;;;;17.71;64.92;101318.11;2838384;82;21076;-90
2022/10/09 12:14:37;;;;;;;2.05;1.05;;;;;;;17.74;63.42;101315.12;2834885;82;21052;-90
2022/10/09 12:18:44;;;;;;;7.90;2.02;;;;;;;17.81;66.04;101307.30;2830491;82;21079;-90
2022/10/09 12:22:52;;;;;;;9.35;1.55;;;;;;;17.92;64.30;101300.36;2833403;82;21028;-92
2022/10/09 12:26:59;;;;;;;3.95;0.95;;;;;;;17.99;63.39;101299.27;2830886;81;21120;-91
2022/10/09 12:31:04;;;;;;;5.67;1.95;;;;;;;18.13;64.27;101294.77;2824439;82;21036;-90
2022/10/09 12:35:25;;;;;;;6.45;2.02;;;;;;;18.33;65.74;101287.91;2831713;81;21064;-92
2022/10/09 12:39:27;;;;;;;6.90;5.60;;;;;;;18.44;64.21;101290.87;2833563;82;21030;-91
2022/10/09 12:43:30;;;;;;;2.00;1.20;;;;;;;18.61;64.13;101283.78;2786776;82;21068;-90
2022/10/09 12:47:34;;;;;;;4.37;1.67;;;;;;;18.68;62.59;101275.94;2834228;82;21132;-91
2022/10/09 12:51:35;;;;;;;2.02;0.90;;;;;;;18.74;63.27;101273.95;2838098;82;21080;-91
2022/10/09 12:55:41;;;;;;;2.12;1.57;;;;;;;18.68;61.69;101263.32;2773743;82;21091;-91
2022/10/09 12:59:45;;;;;;;2.25;1.57;;;;;;;18.68;62.45;101264.67;2750061;84;21052;-91
2022/10/09 13:04:04;;;;;;;4.30;1.52;;;;;;;18.63;62.91;101263.44;2752490;83;21134;-91
2022/10/09 13:08:09;;;;;;;2.70;1.05;;;;;;;18.59;63.58;101268.28;2746722;83;21050;-91
2022/10/09 13:12:21;;;;;;;7.25;1.37;;;;;;;18.63;61.66;101261.57;2752180;83;21087;-90
2022/10/09 13:16:23;;;;;;;5.65;2.02;;;;;;;18.67;62.79;101268.37;2771618;83;21114;-91
2022/10/09 13:20:30;;;;;;;1.47;0.50;;;;;;;18.58;59.48;101262.55;2768307;83;21006;-91
2022/10/09 13:24:34;;;;;;;3.05;1.07;;;;;;;18.61;62.45;101260.05;2769784;83;21566;-91
2022/10/09 13:28:35;;;;;;;8.98;1.60;;;;;;;18.46;61.60;101253.86;2754341;83;21090;-90
2022/10/09 13:32:36;;;;;;;2.83;0.90;;;;;;;18.47;63.61;101256.03;2824997;82;21021;-90
2022/10/09 13:36:38;;;;;;;3.55;1.82;;;;;;;18.38;63.65;101253.27;2756048;82;21013;-88
2022/10/09 13:40:39;;;;;;;6.45;0.88;;;;;;;18.26;63.53;101257.18;2811836;82;21041;-91
2022/10/09 13:44:40;;;;;;;2.80;0.72;;;;;;;18.05;64.04;101254.79;2811096;81;21098;-91
2022/10/09 13:48:42;;;;;;;8.18;1.77;;;;;;;17.88;63.55;101252.36;2824013;82;21076;-92
2022/10/09 13:52:43;;;;;;;2.30;0.93;;;;;;;17.85;65.10;101236.87;2799599;82;21100;-92
2022/10/09 13:56:44;;;;;;;2.22;0.70;;;;;;;18.01;63.24;101238.05;2831189;82;21057;-91
2022/10/09 14:00:46;;;;;;;2.92;0.98;;;;;;;18.09;60.83;101231.94;2812178;82;21069;-91
2022/10/09 14:04:47;;;;;;;3.75;1.37;;;;;;;18.00;59.58;101226.94;2838402;82;21068;-91
2022/10/09 14:08:49;;;;;;;6.00;0.60;;;;;;;17.95;58.30;101231.94;2822155;82;21068;-91
2022/10/09 14:12:50;;;;;;;6.62;1.70;;;;;;;17.83;58.45;101225.41;2830259;82;21140;-91
2022/10/09 14:16:51;;;;;;;3.20;0.80;;;;;;;17.72;60.20;101229.66;2837664;82;21044;-90
2022/10/09 14:20:52;;;;;;;2.67;1.57;;;;;;;17.54;61.23;101228.25;2838684;82;21111;-91
2022/10/09 14:24:53;;;;;;;1.22;0.78;;;;;;;17.47;59.78;101224.47;2810932;82;21005;-91
2022/10/09 14:28:57;;;;;;;3.42;1.15;;;;;;;17.35;61.60;101217.09;2832053;81;21064;-90
2022/10/09 14:32:59;;;;;;;2.27;0.90;;;;;;;17.46;61.16;101212.85;2827984;82;21046;-91
2022/10/09 14:37:00;;;;;;;3.37;1.55;;;;;;;17.53;60.03;101208.59;2831564;82;21391;-91
2022/10/09 14:41:01;;;;;;;1.42;0.82;;;;;;;17.52;60.20;101210.94;2837596;82;21037;-91
2022/10/09 14:45:03;;;;;;;5.00;1.20;;;;;;;17.38;63.58;101205.52;2829697;82;21146;-90
2022/10/09 14:49:07;;;;;;;6.33;3.47;;;;;;;17.41;62.76;101199.02;2827547;81;21035;-90
2022/10/09 14:53:08;;;;;;;9.20;2.70;;;;;;;17.40;62.04;101191.94;2821084;82;21552;-91
2022/10/09 14:57:09;;;;;;;2.20;1.27;;;;;;;17.40;61.29;101197.32;2823780;81;21123;-90
2022/10/09 15:01:14;;;;;;;7.20;1.40;;;;;;;17.32;61.04;101190.50;2823020;82;21041;-91
2022/10/09 15:05:16;;;;;;;4.67;1.80;;;;;;;17.17;62.53;101188.77;2764341;84;21089;-91
2022/10/09 15:09:18;;;;;;;3.95;2.72;;;;;;;17.06;63.43;101189.31;2704750;85;28543;-89
2022/10/09 15:13:19;;;;;;;3.50;1.40;;;;;;;16.95;63.45;101191.66;2836749;82;21099;-90
2022/10/09 15:17:20;;;;;;;1.77;0.88;;;;;;;16.85;61.92;101186.30;2814056;82;21068;-90
2022/10/09 15:21:26;;;;;;;6.80;2.30;;;;;;;16.74;62.30;101182.94;2828478;82;21077;-90
2022/10/09 15:25:31;;;;;;;4.47;2.77;;;;;;;16.64;62.02;101177.08;2827057;81;21076;-90
2022/10/09 15:29:30;;;;;;;7.92;2.75;;;;;;;16.44;63.25;101178.09;2830348;82;21713;-91
2022/10/09 15:33:32;;;;;;;5.70;2.50;;;;;;;16.32;63.64;101178.73;2827980;81;21866;-90
2022/10/09 15:37:33;;;;;;;4.22;2.45;;;;;;;16.12;63.86;101178.25;2833222;82;21108;-91
2022/10/09 15:41:37;;;;;;;3.58;1.45;;;;;;;16.02;64.06;101167.99;2837767;82;21051;-91
2022/10/09 15:45:38;;;;;;;2.30;0.70;;;;;;;16.00;64.67;101171.31;2801182;82;21084;-90
2022/10/09 15:49:43;;;;;;;4.70;1.40;;;;;;;15.95;65.58;101174.41;2811094;82;20994;-91
2022/10/09 15:53:47;;;;;;;1.85;0.78;;;;;;;15.93;66.17;101176.89;2843834;81;21072;-90
2022/10/09 15:57:48;;;;;;;7.67;1.42;;;;;;;15.83;66.56;101169.63;2825412;82;21053;-91
2022/10/09 16:01:49;;;;;;;6.08;2.00;;;;;;;15.75;66.74;101163.26;2831593;81;21051;-90
2022/10/09 16:05:51;;;;;;;12.23;2.47;;;;;;;15.65;67.33;101168.60;2825279;81;21045;-90
2022/10/09 16:09:52;;;;;;;6.22;2.27;;;;;;;15.48;67.96;101169.61;2828843;81;21050;-90
2022/10/09 16:13:54;;;;;;;4.83;1.85;;;;;;;15.32;68.35;101167.45;2832988;82;21037;-90
2022/10/09 16:17:56;;;;;;;5.17;1.60;;;;;;;15.10;69.17;101174.70;2836758;81;21099;-90
2022/10/09 16:21:57;;;;;;;2.05;0.82;;;;;;;14.81;70.42;101171.86;2833398;82;21009;-90
2022/10/09 16:26:00;;;;;;;3.33;1.15;;;;;;;14.61;71.55;101177.06;2833653;82;21077;-91
2022/10/09 16:30:03;;;;;;;1.67;1.00;;;;;;;14.47;71.76;101177.38;2837360;83;21072;-91
2022/10/09 16:34:06;;;;;;;3.60;1.62;;;;;;;14.36;71.67;101178.28;2818405;82;21663;-89
2022/10/09 16:38:08;;;;;;;4.47;1.92;;;;;;;14.27;71.97;101182.58;2835119;81;21104;-89
2022/10/09 16:42:09;;;;;;;2.55;0.95;;;;;;;14.19;72.47;101182.37;2827126;82;21052;-90
2022/10/09 16:46:18;;;;;;;2.70;0.90;;;;;;;14.12;73.05;101180.70;2817273;81;21048;-90
2022/10/09 16:50:19;;;;;;;5.25;1.77;;;;;;;14.01;73.65;101185.59;2816844;81;21530;-91
2022/10/09 16:54:20;;;;;;;2.60;1.60;;;;;;;13.94;73.87;101185.25;2821520;82;21072;-91
2022/10/09 16:58:21;;;;;;;4.42;1.75;;;;;;;13.87;74.88;101184.53;2787364;82;21078;-91
2022/10/09 17:02:22;;;;;;;5.58;1.47;;;;;;;13.79;75.45;101178.00;2842596;81;20985;-91
2022/10/09 17:06:25;;;;;;;2.15;1.85;;;;;;;13.72;77.30;101182.13;2833039;82;21040;-91
2022/10/09 17:10:26;;;;;;;8.75;2.98;;;;;;;13.60;77.67;101181.30;2818995;82;21089;-90
2022/10/09 17:14:28;;;;;;;7.85;3.92;;;;;;;13.48;78.90;101181.80;2834964;82;21509;-90
2022/10/09 17:18:29;;;;;;;8.60;3.98;;;;;;;13.37;78.81;101187.14;2742673;82;21138;-90
2022/10/09 17:22:30;;;;;;;6.53;3.70;;;;;;;13.19;78.73;101190.29;2828903;82;21080;-91
2022/10/09 17:26:32;;;;;;;4.90;3.45;;;;;;;13.06;79.81;101189.54;2832309;82;21037;-91
2022/10/09 17:30:39;;;;;;;9.93;5.92;;;;;;;12.81;81.01;101196.80;2830585;82;21076;-90
2022/10/09 17:34:44;;;;;;;10.53;6.80;;;;;;;12.59;81.10;101197.11;2824442;82;21123;-90
2022/10/09 17:38:45;;;;;;;9.55;4.80;;;;;;;12.41;81.02;101198.86;2792859;82;21525;-90
2022/10/09 17:42:46;;;;;;;5.00;2.75;;;;;;;12.38;82.20;101197.77;2832530;81;21140;-90
2022/10/09 17:46:47;;;;;;;6.87;2.95;;;;;;;12.42;82.33;101190.36;2769088;82;20978;-90
2022/10/09 17:50:56;;;;;;;7.97;3.25;;;;;;;12.44;81.88;101199.09;2830336;82;21069;-89
2022/10/09 17:54:58;;;;;;;11.88;2.50;;;;;;;12.43;81.24;101187.59;2837037;81;21068;-90
2022/10/09 17:59:00;;;;;;;2.77;1.57;;;;;;;12.41;80.69;101186.86;2835986;82;21041;-89
2022/10/09 18:03:01;;;;;;;7.53;2.62;;;;;;;12.39;80.43;101182.13;2836044;82;21052;-91
2022/10/09 18:07:04;;;;;;;3.52;2.20;;;;;;;12.38;80.05;101192.42;2826525;82;21172;-90
2022/10/09 18:11:10;;;;;;;2.35;1.62;;;;;;;12.31;80.10;101195.17;2819571;82;21104;-90
2022/10/09 18:15:12;;;;;;;9.05;2.90;;;;;;;12.27;80.17;101184.36;2830899;82;21012;-89
2022/10/09 18:19:17;;;;;;;5.10;4.20;;;;;;;12.20;80.50;101185.80;2835550;82;21084;-89
2022/10/09 18:23:18;;;;;;;5.63;3.40;;;;;;;12.08;82.64;101185.73;2830817;82;21005;-88
2022/10/09 18:27:19;;;;;;;12.23;6.17;;;;;;;11.93;82.86;101189.02;2825925;82;21056;-89
2022/10/09 18:31:22;;;;;;;9.55;6.12;;;;;;;11.85;83.06;101182.92;2818331;81;21023;-89
2022/10/09 18:35:25;;;;;;;9.18;5.15;;;;;;;11.81;83.79;101184.11;2759796;83;21058;-88
2022/10/09 18:39:27;;;;;;;13.60;7.35;;;;;;;11.75;84.42;101189.87;2833601;82;21058;-89
2022/10/09 18:43:28;;;;;;;11.85;6.05;;;;;;;11.62;84.04;101191.24;2790179;82;21030;-89
2022/10/09 18:47:33;;;;;;;7.37;5.60;;;;;;;11.59;84.10;101191.47;2825090;81;21031;-89
2022/10/09 18:51:37;;;;;;;9.35;6.00;;;;;;;11.54;83.73;101189.63;2836895;82;21070;-88
2022/10/09 18:55:40;;;;;;;23.32;12.35;;;;;;;11.48;84.01;101192.70;2835073;82;21107;-89